sensor_id;sensor_type;location;lat;lon;timestamp;P1;durP1;ratioP1;P2;durP2;ratioP2
19207;SDS011;9737;59.466;18.036;2023-05-10T00:00:32;14.02;;;7.47;;
19207;SDS011;9737;59.466;18.036;2023-05-10T00:03:00;14.35;;;7.38;;
19207;SDS011;9737;59.466;18.036;2023-05-10T00:05:30;17.70;;;7.70;;
19207;SDS011;9737;59.466;18.036;2023-05-10T00:08:00;15.27;;;7.93;;
19207;SDS011;9737;59.466;18.036;2023-05-10T00:10:28;20.27;;;8.30;;
19207;SDS011;9737;59.466;18.036;2023-05-10T00:12:55;14.80;;;7.40;;
19207;SDS011;9737;59.466;18.036;2023-05-10T00:15:23;15.88;;;7.50;;
19207;SDS011;9737;59.466;18.036;2023-05-10T00:17:51;18.75;;;7.65;;
19207;SDS011;9737;59.466;18.036;2023-05-10T00:20:19;16.35;;;7.82;;
19207;SDS011;9737;59.466;18.036;2023-05-10T00:22:47;15.18;;;7.72;;
19207;SDS011;9737;59.466;18.036;2023-05-10T00:25:17;18.75;;;7.53;;
19207;SDS011;9737;59.466;18.036;2023-05-10T00:27:45;14.52;;;7.72;;
19207;SDS011;9737;59.466;18.036;2023-05-10T00:30:13;13.77;;;7.63;;
19207;SDS011;9737;59.466;18.036;2023-05-10T00:32:41;14.45;;;8.15;;
19207;SDS011;9737;59.466;18.036;2023-05-10T00:35:09;15.05;;;7.18;;
19207;SDS011;9737;59.466;18.036;2023-05-10T00:37:37;21.40;;;7.95;;
19207;SDS011;9737;59.466;18.036;2023-05-10T00:40:06;15.23;;;7.47;;
19207;SDS011;9737;59.466;18.036;2023-05-10T00:42:36;13.57;;;7.47;;
19207;SDS011;9737;59.466;18.036;2023-05-10T00:45:04;19.25;;;7.78;;
19207;SDS011;9737;59.466;18.036;2023-05-10T00:47:33;17.30;;;7.38;;
19207;SDS011;9737;59.466;18.036;2023-05-10T00:50:02;15.95;;;7.82;;
19207;SDS011;9737;59.466;18.036;2023-05-10T00:52:30;14.35;;;7.50;;
19207;SDS011;9737;59.466;18.036;2023-05-10T00:54:59;19.17;;;7.95;;
19207;SDS011;9737;59.466;18.036;2023-05-10T00:57:27;20.60;;;8.63;;
19207;SDS011;9737;59.466;18.036;2023-05-10T00:59:57;17.15;;;7.78;;
19207;SDS011;9737;59.466;18.036;2023-05-10T01:02:26;15.50;;;7.68;;
19207;SDS011;9737;59.466;18.036;2023-05-10T01:04:55;14.23;;;7.35;;
19207;SDS011;9737;59.466;18.036;2023-05-10T01:07:22;22.45;;;7.80;;
19207;SDS011;9737;59.466;18.036;2023-05-10T01:09:50;16.50;;;7.47;;
19207;SDS011;9737;59.466;18.036;2023-05-10T01:12:18;17.65;;;7.68;;
19207;SDS011;9737;59.466;18.036;2023-05-10T01:14:47;13.35;;;7.50;;
19207;SDS011;9737;59.466;18.036;2023-05-10T01:17:17;13.00;;;7.85;;
19207;SDS011;9737;59.466;18.036;2023-05-10T01:19:45;12.57;;;7.90;;
19207;SDS011;9737;59.466;18.036;2023-05-10T01:22:21;13.43;;;7.97;;
19207;SDS011;9737;59.466;18.036;2023-05-10T01:25:11;21.58;;;7.85;;
19207;SDS011;9737;59.466;18.036;2023-05-10T01:33:48;14.48;;;7.25;;
19207;SDS011;9737;59.466;18.036;2023-05-10T01:36:23;14.20;;;8.02;;
19207;SDS011;9737;59.466;18.036;2023-05-10T01:38:59;14.52;;;7.60;;
19207;SDS011;9737;59.466;18.036;2023-05-10T01:41:35;17.15;;;7.35;;
19207;SDS011;9737;59.466;18.036;2023-05-10T01:44:10;14.45;;;7.25;;
19207;SDS011;9737;59.466;18.036;2023-05-10T01:46:44;16.45;;;7.57;;
19207;SDS011;9737;59.466;18.036;2023-05-10T01:49:23;17.10;;;8.50;;
19207;SDS011;9737;59.466;18.036;2023-05-10T01:51:53;15.75;;;7.75;;
19207;SDS011;9737;59.466;18.036;2023-05-10T01:54:33;19.08;;;8.00;;
19207;SDS011;9737;59.466;18.036;2023-05-10T01:57:06;16.58;;;7.80;;
19207;SDS011;9737;59.466;18.036;2023-05-10T01:59:36;13.15;;;7.47;;
19207;SDS011;9737;59.466;18.036;2023-05-10T02:02:07;15.65;;;8.02;;
19207;SDS011;9737;59.466;18.036;2023-05-10T02:04:39;12.48;;;7.90;;
19207;SDS011;9737;59.466;18.036;2023-05-10T02:07:09;15.75;;;7.97;;
19207;SDS011;9737;59.466;18.036;2023-05-10T02:09:37;13.50;;;8.07;;
19207;SDS011;9737;59.466;18.036;2023-05-10T02:12:06;15.52;;;8.65;;
19207;SDS011;9737;59.466;18.036;2023-05-10T02:14:35;13.85;;;8.38;;
19207;SDS011;9737;59.466;18.036;2023-05-10T02:17:04;14.38;;;8.35;;
19207;SDS011;9737;59.466;18.036;2023-05-10T02:19:35;16.52;;;8.18;;
19207;SDS011;9737;59.466;18.036;2023-05-10T02:22:07;17.25;;;8.80;;
19207;SDS011;9737;59.466;18.036;2023-05-10T02:24:36;15.75;;;8.20;;
19207;SDS011;9737;59.466;18.036;2023-05-10T02:27:06;15.57;;;7.60;;
19207;SDS011;9737;59.466;18.036;2023-05-10T02:29:36;17.58;;;8.10;;
19207;SDS011;9737;59.466;18.036;2023-05-10T02:32:05;13.77;;;7.80;;
19207;SDS011;9737;59.466;18.036;2023-05-10T02:34:33;20.58;;;8.18;;
19207;SDS011;9737;59.466;18.036;2023-05-10T02:37:02;14.20;;;8.20;;
19207;SDS011;9737;59.466;18.036;2023-05-10T02:39:31;24.33;;;8.50;;
19207;SDS011;9737;59.466;18.036;2023-05-10T02:41:59;20.10;;;8.50;;
19207;SDS011;9737;59.466;18.036;2023-05-10T02:44:29;18.08;;;8.02;;
19207;SDS011;9737;59.466;18.036;2023-05-10T02:46:57;18.88;;;8.75;;
19207;SDS011;9737;59.466;18.036;2023-05-10T02:49:26;16.85;;;8.15;;
19207;SDS011;9737;59.466;18.036;2023-05-10T02:51:56;12.85;;;7.95;;
19207;SDS011;9737;59.466;18.036;2023-05-10T02:54:31;20.00;;;9.43;;
19207;SDS011;9737;59.466;18.036;2023-05-10T02:57:03;19.00;;;9.20;;
19207;SDS011;9737;59.466;18.036;2023-05-10T02:59:33;21.33;;;8.38;;
19207;SDS011;9737;59.466;18.036;2023-05-10T03:02:01;15.13;;;8.95;;
19207;SDS011;9737;59.466;18.036;2023-05-10T03:04:29;18.02;;;8.55;;
19207;SDS011;9737;59.466;18.036;2023-05-10T03:06:57;18.50;;;9.02;;
19207;SDS011;9737;59.466;18.036;2023-05-10T03:09:25;18.35;;;8.77;;
19207;SDS011;9737;59.466;18.036;2023-05-10T03:11:56;20.05;;;9.10;;
19207;SDS011;9737;59.466;18.036;2023-05-10T03:14:34;14.02;;;8.63;;
19207;SDS011;9737;59.466;18.036;2023-05-10T03:17:14;18.10;;;9.10;;
19207;SDS011;9737;59.466;18.036;2023-05-10T03:19:48;15.32;;;8.68;;
19207;SDS011;9737;59.466;18.036;2023-05-10T03:22:23;15.27;;;8.82;;
19207;SDS011;9737;59.466;18.036;2023-05-10T03:24:53;14.82;;;9.00;;
19207;SDS011;9737;59.466;18.036;2023-05-10T03:27:26;18.33;;;9.05;;
19207;SDS011;9737;59.466;18.036;2023-05-10T03:29:55;15.00;;;8.20;;
19207;SDS011;9737;59.466;18.036;2023-05-10T03:32:24;15.52;;;9.27;;
19207;SDS011;9737;59.466;18.036;2023-05-10T03:34:53;18.35;;;9.35;;
19207;SDS011;9737;59.466;18.036;2023-05-10T03:37:21;14.27;;;8.68;;
19207;SDS011;9737;59.466;18.036;2023-05-10T03:39:49;14.30;;;8.05;;
19207;SDS011;9737;59.466;18.036;2023-05-10T03:42:17;17.17;;;8.05;;
19207;SDS011;9737;59.466;18.036;2023-05-10T03:44:46;19.67;;;8.20;;
19207;SDS011;9737;59.466;18.036;2023-05-10T03:47:15;14.70;;;8.00;;
19207;SDS011;9737;59.466;18.036;2023-05-10T03:49:43;15.10;;;8.50;;
19207;SDS011;9737;59.466;18.036;2023-05-10T03:52:11;16.30;;;8.45;;
19207;SDS011;9737;59.466;18.036;2023-05-10T03:54:39;12.50;;;7.85;;
19207;SDS011;9737;59.466;18.036;2023-05-10T03:57:07;14.80;;;7.78;;
19207;SDS011;9737;59.466;18.036;2023-05-10T03:59:35;17.50;;;8.23;;
19207;SDS011;9737;59.466;18.036;2023-05-10T04:02:04;18.15;;;7.93;;
19207;SDS011;9737;59.466;18.036;2023-05-10T04:04:32;14.93;;;7.63;;
19207;SDS011;9737;59.466;18.036;2023-05-10T04:07:00;14.05;;;7.28;;
19207;SDS011;9737;59.466;18.036;2023-05-10T04:09:28;14.02;;;7.85;;
19207;SDS011;9737;59.466;18.036;2023-05-10T04:11:56;16.73;;;8.02;;
19207;SDS011;9737;59.466;18.036;2023-05-10T04:14:24;19.05;;;7.80;;
19207;SDS011;9737;59.466;18.036;2023-05-10T04:16:51;10.77;;;6.90;;
19207;SDS011;9737;59.466;18.036;2023-05-10T04:19:21;13.77;;;6.85;;
19207;SDS011;9737;59.466;18.036;2023-05-10T04:21:48;14.13;;;7.63;;
19207;SDS011;9737;59.466;18.036;2023-05-10T04:24:16;18.65;;;7.15;;
19207;SDS011;9737;59.466;18.036;2023-05-10T04:26:44;14.90;;;7.18;;
19207;SDS011;9737;59.466;18.036;2023-05-10T04:29:12;10.88;;;6.82;;
19207;SDS011;9737;59.466;18.036;2023-05-10T04:31:40;15.80;;;7.30;;
19207;SDS011;9737;59.466;18.036;2023-05-10T04:34:08;15.57;;;6.97;;
19207;SDS011;9737;59.466;18.036;2023-05-10T04:36:37;12.48;;;7.63;;
19207;SDS011;9737;59.466;18.036;2023-05-10T04:39:05;15.27;;;6.40;;
19207;SDS011;9737;59.466;18.036;2023-05-10T04:41:33;11.25;;;6.05;;
19207;SDS011;9737;59.466;18.036;2023-05-10T04:44:01;18.75;;;7.10;;
19207;SDS011;9737;59.466;18.036;2023-05-10T04:46:29;12.90;;;6.13;;
19207;SDS011;9737;59.466;18.036;2023-05-10T04:48:58;13.60;;;6.70;;
19207;SDS011;9737;59.466;18.036;2023-05-10T04:51:26;10.93;;;6.00;;
19207;SDS011;9737;59.466;18.036;2023-05-10T04:53:55;16.23;;;6.78;;
19207;SDS011;9737;59.466;18.036;2023-05-10T04:56:33;13.00;;;6.40;;
19207;SDS011;9737;59.466;18.036;2023-05-10T04:59:00;11.63;;;6.03;;
19207;SDS011;9737;59.466;18.036;2023-05-10T05:01:28;11.50;;;6.43;;
19207;SDS011;9737;59.466;18.036;2023-05-10T05:03:56;12.93;;;5.75;;
19207;SDS011;9737;59.466;18.036;2023-05-10T05:06:25;11.88;;;6.15;;
19207;SDS011;9737;59.466;18.036;2023-05-10T05:08:53;15.63;;;6.38;;
19207;SDS011;9737;59.466;18.036;2023-05-10T05:11:22;17.85;;;6.30;;
19207;SDS011;9737;59.466;18.036;2023-05-10T05:13:51;10.93;;;5.95;;
19207;SDS011;9737;59.466;18.036;2023-05-10T05:16:19;8.43;;;5.38;;
19207;SDS011;9737;59.466;18.036;2023-05-10T05:18:47;20.88;;;6.13;;
19207;SDS011;9737;59.466;18.036;2023-05-10T05:21:15;12.90;;;5.70;;
19207;SDS011;9737;59.466;18.036;2023-05-10T05:23:44;12.45;;;5.25;;
19207;SDS011;9737;59.466;18.036;2023-05-10T05:26:12;13.93;;;6.55;;
19207;SDS011;9737;59.466;18.036;2023-05-10T05:28:42;17.77;;;6.20;;
19207;SDS011;9737;59.466;18.036;2023-05-10T05:31:10;16.08;;;6.00;;
19207;SDS011;9737;59.466;18.036;2023-05-10T05:33:38;12.90;;;5.60;;
19207;SDS011;9737;59.466;18.036;2023-05-10T05:36:06;14.60;;;5.63;;
19207;SDS011;9737;59.466;18.036;2023-05-10T05:38:34;14.40;;;5.40;;
19207;SDS011;9737;59.466;18.036;2023-05-10T05:41:02;12.75;;;5.45;;
19207;SDS011;9737;59.466;18.036;2023-05-10T05:43:30;11.38;;;5.15;;
19207;SDS011;9737;59.466;18.036;2023-05-10T05:45:59;17.13;;;5.25;;
19207;SDS011;9737;59.466;18.036;2023-05-10T05:48:27;16.13;;;5.60;;
19207;SDS011;9737;59.466;18.036;2023-05-10T05:50:56;16.52;;;5.38;;
19207;SDS011;9737;59.466;18.036;2023-05-10T05:53:24;16.50;;;5.57;;
19207;SDS011;9737;59.466;18.036;2023-05-10T05:55:52;14.05;;;5.22;;
19207;SDS011;9737;59.466;18.036;2023-05-10T05:58:21;13.65;;;5.43;;
19207;SDS011;9737;59.466;18.036;2023-05-10T06:00:51;21.13;;;5.30;;
19207;SDS011;9737;59.466;18.036;2023-05-10T06:03:20;12.88;;;5.75;;
19207;SDS011;9737;59.466;18.036;2023-05-10T06:05:53;8.05;;;4.57;;
19207;SDS011;9737;59.466;18.036;2023-05-10T06:08:20;12.65;;;5.15;;
19207;SDS011;9737;59.466;18.036;2023-05-10T06:10:48;10.55;;;5.53;;
19207;SDS011;9737;59.466;18.036;2023-05-10T06:13:16;22.70;;;5.75;;
19207;SDS011;9737;59.466;18.036;2023-05-10T06:15:44;9.82;;;5.30;;
19207;SDS011;9737;59.466;18.036;2023-05-10T06:18:12;13.35;;;5.00;;
19207;SDS011;9737;59.466;18.036;2023-05-10T06:20:42;14.80;;;5.07;;
19207;SDS011;9737;59.466;18.036;2023-05-10T06:23:10;12.45;;;5.07;;
19207;SDS011;9737;59.466;18.036;2023-05-10T06:25:38;17.73;;;5.68;;
19207;SDS011;9737;59.466;18.036;2023-05-10T06:28:06;12.00;;;4.97;;
19207;SDS011;9737;59.466;18.036;2023-05-10T06:30:35;14.57;;;4.97;;
19207;SDS011;9737;59.466;18.036;2023-05-10T06:33:04;10.93;;;5.22;;
19207;SDS011;9737;59.466;18.036;2023-05-10T06:35:32;13.32;;;4.80;;
19207;SDS011;9737;59.466;18.036;2023-05-10T06:38:01;24.95;;;5.15;;
19207;SDS011;9737;59.466;18.036;2023-05-10T06:40:29;9.80;;;4.57;;
19207;SDS011;9737;59.466;18.036;2023-05-10T06:42:56;14.85;;;4.40;;
19207;SDS011;9737;59.466;18.036;2023-05-10T06:45:24;19.80;;;5.03;;
19207;SDS011;9737;59.466;18.036;2023-05-10T06:47:52;15.93;;;5.35;;
19207;SDS011;9737;59.466;18.036;2023-05-10T06:50:20;17.98;;;4.60;;
19207;SDS011;9737;59.466;18.036;2023-05-10T06:52:49;14.43;;;4.93;;
19207;SDS011;9737;59.466;18.036;2023-05-10T06:55:20;9.10;;;4.55;;
19207;SDS011;9737;59.466;18.036;2023-05-10T06:57:48;9.55;;;4.68;;
19207;SDS011;9737;59.466;18.036;2023-05-10T07:00:17;13.77;;;4.60;;
19207;SDS011;9737;59.466;18.036;2023-05-10T07:02:46;14.20;;;4.75;;
19207;SDS011;9737;59.466;18.036;2023-05-10T07:05:14;9.98;;;4.72;;
19207;SDS011;9737;59.466;18.036;2023-05-10T07:07:43;16.20;;;4.55;;
19207;SDS011;9737;59.466;18.036;2023-05-10T07:10:11;10.93;;;4.35;;
19207;SDS011;9737;59.466;18.036;2023-05-10T07:12:40;10.55;;;5.20;;
19207;SDS011;9737;59.466;18.036;2023-05-10T07:15:08;16.83;;;4.30;;
19207;SDS011;9737;59.466;18.036;2023-05-10T07:17:36;17.35;;;4.40;;
19207;SDS011;9737;59.466;18.036;2023-05-10T07:20:05;16.10;;;4.18;;
19207;SDS011;9737;59.466;18.036;2023-05-10T07:22:34;9.73;;;4.50;;
19207;SDS011;9737;59.466;18.036;2023-05-10T07:25:02;9.85;;;4.68;;
19207;SDS011;9737;59.466;18.036;2023-05-10T07:27:30;14.32;;;4.55;;
19207;SDS011;9737;59.466;18.036;2023-05-10T07:30:00;11.57;;;4.25;;
19207;SDS011;9737;59.466;18.036;2023-05-10T07:32:27;9.90;;;4.45;;
19207;SDS011;9737;59.466;18.036;2023-05-10T07:34:56;14.80;;;4.20;;
19207;SDS011;9737;59.466;18.036;2023-05-10T07:37:24;12.85;;;3.90;;
19207;SDS011;9737;59.466;18.036;2023-05-10T07:39:52;11.88;;;4.30;;
19207;SDS011;9737;59.466;18.036;2023-05-10T07:42:19;16.30;;;4.38;;
19207;SDS011;9737;59.466;18.036;2023-05-10T07:44:47;12.73;;;4.55;;
19207;SDS011;9737;59.466;18.036;2023-05-10T07:47:16;12.70;;;4.47;;
19207;SDS011;9737;59.466;18.036;2023-05-10T07:49:45;8.90;;;4.10;;
19207;SDS011;9737;59.466;18.036;2023-05-10T07:52:13;7.40;;;4.30;;
19207;SDS011;9737;59.466;18.036;2023-05-10T07:54:41;9.00;;;4.25;;
19207;SDS011;9737;59.466;18.036;2023-05-10T07:57:09;13.75;;;4.65;;
19207;SDS011;9737;59.466;18.036;2023-05-10T07:59:37;13.70;;;4.93;;
19207;SDS011;9737;59.466;18.036;2023-05-10T08:02:05;8.00;;;4.43;;
19207;SDS011;9737;59.466;18.036;2023-05-10T08:04:34;14.05;;;4.70;;
19207;SDS011;9737;59.466;18.036;2023-05-10T08:07:02;8.98;;;4.00;;
19207;SDS011;9737;59.466;18.036;2023-05-10T08:09:30;12.88;;;4.65;;
19207;SDS011;9737;59.466;18.036;2023-05-10T08:11:59;13.68;;;4.43;;
19207;SDS011;9737;59.466;18.036;2023-05-10T08:14:27;11.40;;;4.38;;
19207;SDS011;9737;59.466;18.036;2023-05-10T08:16:56;7.55;;;4.28;;
19207;SDS011;9737;59.466;18.036;2023-05-10T08:19:24;12.40;;;4.43;;
19207;SDS011;9737;59.466;18.036;2023-05-10T08:21:53;7.45;;;4.35;;
19207;SDS011;9737;59.466;18.036;2023-05-10T08:24:22;10.00;;;4.40;;
19207;SDS011;9737;59.466;18.036;2023-05-10T08:26:50;14.52;;;3.92;;
19207;SDS011;9737;59.466;18.036;2023-05-10T08:29:19;7.03;;;4.32;;
19207;SDS011;9737;59.466;18.036;2023-05-10T08:31:46;7.85;;;3.92;;
19207;SDS011;9737;59.466;18.036;2023-05-10T08:34:14;11.05;;;4.13;;
19207;SDS011;9737;59.466;18.036;2023-05-10T08:36:42;8.15;;;3.80;;
19207;SDS011;9737;59.466;18.036;2023-05-10T08:39:11;7.97;;;4.20;;
19207;SDS011;9737;59.466;18.036;2023-05-10T08:41:54;5.95;;;3.78;;
19207;SDS011;9737;59.466;18.036;2023-05-10T08:44:28;7.63;;;4.20;;
19207;SDS011;9737;59.466;18.036;2023-05-10T08:46:58;8.27;;;4.18;;
19207;SDS011;9737;59.466;18.036;2023-05-10T08:49:30;23.10;;;4.55;;
19207;SDS011;9737;59.466;18.036;2023-05-10T08:51:59;11.50;;;4.25;;
19207;SDS011;9737;59.466;18.036;2023-05-10T08:54:33;12.27;;;3.72;;
19207;SDS011;9737;59.466;18.036;2023-05-10T08:57:01;8.70;;;4.43;;
19207;SDS011;9737;59.466;18.036;2023-05-10T08:59:29;11.10;;;4.28;;
19207;SDS011;9737;59.466;18.036;2023-05-10T09:01:58;12.45;;;3.72;;
19207;SDS011;9737;59.466;18.036;2023-05-10T09:04:26;7.75;;;4.03;;
19207;SDS011;9737;59.466;18.036;2023-05-10T09:06:56;11.10;;;4.00;;
19207;SDS011;9737;59.466;18.036;2023-05-10T09:09:24;8.60;;;4.03;;
19207;SDS011;9737;59.466;18.036;2023-05-10T09:11:54;9.95;;;3.63;;
19207;SDS011;9737;59.466;18.036;2023-05-10T09:14:25;11.07;;;3.50;;
19207;SDS011;9737;59.466;18.036;2023-05-10T09:16:53;5.20;;;3.58;;
19207;SDS011;9737;59.466;18.036;2023-05-10T09:19:22;7.68;;;3.95;;
19207;SDS011;9737;59.466;18.036;2023-05-10T09:21:50;8.57;;;3.90;;
19207;SDS011;9737;59.466;18.036;2023-05-10T09:24:18;9.70;;;3.90;;
19207;SDS011;9737;59.466;18.036;2023-05-10T09:26:46;7.07;;;3.50;;
19207;SDS011;9737;59.466;18.036;2023-05-10T09:29:17;6.55;;;3.60;;
19207;SDS011;9737;59.466;18.036;2023-05-10T09:31:45;12.57;;;3.60;;
19207;SDS011;9737;59.466;18.036;2023-05-10T09:34:15;6.93;;;3.80;;
19207;SDS011;9737;59.466;18.036;2023-05-10T09:36:51;8.35;;;3.70;;
19207;SDS011;9737;59.466;18.036;2023-05-10T09:39:20;10.07;;;3.78;;
19207;SDS011;9737;59.466;18.036;2023-05-10T09:41:57;6.47;;;3.22;;
19207;SDS011;9737;59.466;18.036;2023-05-10T09:44:27;9.43;;;3.28;;
19207;SDS011;9737;59.466;18.036;2023-05-10T09:46:55;7.35;;;3.65;;
19207;SDS011;9737;59.466;18.036;2023-05-10T09:49:23;12.95;;;3.55;;
19207;SDS011;9737;59.466;18.036;2023-05-10T09:52:00;9.88;;;3.40;;
19207;SDS011;9737;59.466;18.036;2023-05-10T09:54:30;8.77;;;3.22;;
19207;SDS011;9737;59.466;18.036;2023-05-10T09:56:58;5.38;;;3.70;;
19207;SDS011;9737;59.466;18.036;2023-05-10T09:59:32;5.90;;;3.40;;
19207;SDS011;9737;59.466;18.036;2023-05-10T10:02:01;9.70;;;3.38;;
19207;SDS011;9737;59.466;18.036;2023-05-10T10:04:30;8.52;;;3.22;;
19207;SDS011;9737;59.466;18.036;2023-05-10T10:06:59;6.90;;;3.17;;
19207;SDS011;9737;59.466;18.036;2023-05-10T10:09:29;8.18;;;4.00;;
19207;SDS011;9737;59.466;18.036;2023-05-10T10:11:57;7.28;;;3.80;;
19207;SDS011;9737;59.466;18.036;2023-05-10T10:14:26;7.82;;;3.40;;
19207;SDS011;9737;59.466;18.036;2023-05-10T10:16:56;12.88;;;3.50;;
19207;SDS011;9737;59.466;18.036;2023-05-10T10:19:27;6.78;;;3.35;;
19207;SDS011;9737;59.466;18.036;2023-05-10T10:21:55;6.32;;;3.53;;
19207;SDS011;9737;59.466;18.036;2023-05-10T10:24:23;9.40;;;3.60;;
19207;SDS011;9737;59.466;18.036;2023-05-10T10:26:51;11.05;;;3.40;;
19207;SDS011;9737;59.466;18.036;2023-05-10T10:29:23;5.60;;;3.30;;
19207;SDS011;9737;59.466;18.036;2023-05-10T10:31:57;6.57;;;3.42;;
19207;SDS011;9737;59.466;18.036;2023-05-10T10:34:35;10.93;;;3.55;;
19207;SDS011;9737;59.466;18.036;2023-05-10T10:37:03;8.35;;;3.55;;
19207;SDS011;9737;59.466;18.036;2023-05-10T10:39:32;5.68;;;2.90;;
19207;SDS011;9737;59.466;18.036;2023-05-10T10:42:03;5.82;;;3.58;;
19207;SDS011;9737;59.466;18.036;2023-05-10T10:44:37;8.05;;;3.22;;
19207;SDS011;9737;59.466;18.036;2023-05-10T10:47:11;11.98;;;3.58;;
19207;SDS011;9737;59.466;18.036;2023-05-10T10:50:02;7.55;;;3.47;;
19207;SDS011;9737;59.466;18.036;2023-05-10T10:52:32;6.15;;;3.20;;
19207;SDS011;9737;59.466;18.036;2023-05-10T10:55:01;7.68;;;3.35;;
19207;SDS011;9737;59.466;18.036;2023-05-10T10:57:31;7.72;;;3.30;;
19207;SDS011;9737;59.466;18.036;2023-05-10T11:02:53;6.43;;;3.10;;
19207;SDS011;9737;59.466;18.036;2023-05-10T11:05:36;8.90;;;3.22;;
19207;SDS011;9737;59.466;18.036;2023-05-10T11:08:12;7.65;;;2.80;;
19207;SDS011;9737;59.466;18.036;2023-05-10T11:10:49;10.13;;;2.97;;
19207;SDS011;9737;59.466;18.036;2023-05-10T11:13:30;7.82;;;3.53;;
19207;SDS011;9737;59.466;18.036;2023-05-10T11:15:59;8.32;;;3.25;;
19207;SDS011;9737;59.466;18.036;2023-05-10T11:18:39;8.65;;;2.90;;
19207;SDS011;9737;59.466;18.036;2023-05-10T11:21:08;7.55;;;3.35;;
19207;SDS011;9737;59.466;18.036;2023-05-10T11:23:49;5.55;;;3.20;;
19207;SDS011;9737;59.466;18.036;2023-05-10T11:26:18;11.45;;;3.50;;
19207;SDS011;9737;59.466;18.036;2023-05-10T11:28:49;7.97;;;2.95;;
19207;SDS011;9737;59.466;18.036;2023-05-10T11:31:17;7.25;;;3.28;;
19207;SDS011;9737;59.466;18.036;2023-05-10T11:33:49;10.40;;;3.67;;
19207;SDS011;9737;59.466;18.036;2023-05-10T11:36:18;6.30;;;2.95;;
19207;SDS011;9737;59.466;18.036;2023-05-10T11:38:47;7.00;;;3.53;;
19207;SDS011;9737;59.466;18.036;2023-05-10T11:41:16;8.70;;;3.15;;
19207;SDS011;9737;59.466;18.036;2023-05-10T11:43:46;4.82;;;3.40;;
19207;SDS011;9737;59.466;18.036;2023-05-10T11:46:15;11.77;;;3.50;;
19207;SDS011;9737;59.466;18.036;2023-05-10T11:48:46;8.77;;;3.10;;
19207;SDS011;9737;59.466;18.036;2023-05-10T11:51:20;8.48;;;3.20;;
19207;SDS011;9737;59.466;18.036;2023-05-10T11:53:49;12.80;;;3.33;;
19207;SDS011;9737;59.466;18.036;2023-05-10T11:56:17;9.10;;;3.10;;
19207;SDS011;9737;59.466;18.036;2023-05-10T11:58:52;7.35;;;3.05;;
19207;SDS011;9737;59.466;18.036;2023-05-10T12:01:21;9.95;;;3.38;;
19207;SDS011;9737;59.466;18.036;2023-05-10T12:03:52;6.68;;;3.40;;
19207;SDS011;9737;59.466;18.036;2023-05-10T12:06:26;7.05;;;3.30;;
19207;SDS011;9737;59.466;18.036;2023-05-10T12:09:01;9.98;;;3.15;;
19207;SDS011;9737;59.466;18.036;2023-05-10T12:11:38;10.90;;;3.30;;
19207;SDS011;9737;59.466;18.036;2023-05-10T12:14:09;6.63;;;3.58;;
19207;SDS011;9737;59.466;18.036;2023-05-10T12:16:37;7.55;;;3.45;;
19207;SDS011;9737;59.466;18.036;2023-05-10T12:19:07;10.95;;;3.60;;
19207;SDS011;9737;59.466;18.036;2023-05-10T12:21:35;8.43;;;3.10;;
19207;SDS011;9737;59.466;18.036;2023-05-10T12:24:05;11.82;;;3.80;;
19207;SDS011;9737;59.466;18.036;2023-05-10T12:26:33;7.45;;;3.40;;
19207;SDS011;9737;59.466;18.036;2023-05-10T12:29:12;11.55;;;3.42;;
19207;SDS011;9737;59.466;18.036;2023-05-10T12:31:59;9.50;;;3.50;;
19207;SDS011;9737;59.466;18.036;2023-05-10T12:34:31;8.52;;;3.30;;
19207;SDS011;9737;59.466;18.036;2023-05-10T12:37:01;6.47;;;3.25;;
19207;SDS011;9737;59.466;18.036;2023-05-10T12:39:39;17.70;;;3.42;;
19207;SDS011;9737;59.466;18.036;2023-05-10T12:42:07;7.80;;;2.90;;
19207;SDS011;9737;59.466;18.036;2023-05-10T12:44:35;5.25;;;3.25;;
19207;SDS011;9737;59.466;18.036;2023-05-10T12:47:03;8.93;;;3.20;;
19207;SDS011;9737;59.466;18.036;2023-05-10T12:49:33;10.13;;;3.00;;
19207;SDS011;9737;59.466;18.036;2023-05-10T12:52:01;4.72;;;3.10;;
19207;SDS011;9737;59.466;18.036;2023-05-10T12:54:29;7.07;;;3.35;;
19207;SDS011;9737;59.466;18.036;2023-05-10T12:56:57;6.05;;;3.35;;
19207;SDS011;9737;59.466;18.036;2023-05-10T12:59:25;8.63;;;3.65;;
19207;SDS011;9737;59.466;18.036;2023-05-10T13:01:54;10.13;;;3.38;;
19207;SDS011;9737;59.466;18.036;2023-05-10T13:04:23;7.28;;;3.05;;
19207;SDS011;9737;59.466;18.036;2023-05-10T13:06:53;13.38;;;3.60;;
19207;SDS011;9737;59.466;18.036;2023-05-10T13:09:24;7.45;;;3.33;;
19207;SDS011;9737;59.466;18.036;2023-05-10T13:11:52;6.03;;;3.03;;
19207;SDS011;9737;59.466;18.036;2023-05-10T13:14:20;10.27;;;3.10;;
19207;SDS011;9737;59.466;18.036;2023-05-10T13:16:48;15.60;;;3.25;;
19207;SDS011;9737;59.466;18.036;2023-05-10T13:19:16;9.55;;;3.03;;
19207;SDS011;9737;59.466;18.036;2023-05-10T13:21:44;6.68;;;3.00;;
19207;SDS011;9737;59.466;18.036;2023-05-10T13:24:14;12.63;;;3.80;;
19207;SDS011;9737;59.466;18.036;2023-05-10T13:26:42;10.55;;;3.15;;
19207;SDS011;9737;59.466;18.036;2023-05-10T13:29:10;6.65;;;3.47;;
19207;SDS011;9737;59.466;18.036;2023-05-10T13:31:38;5.82;;;3.22;;
19207;SDS011;9737;59.466;18.036;2023-05-10T13:34:06;8.02;;;3.20;;
19207;SDS011;9737;59.466;18.036;2023-05-10T13:36:34;8.38;;;2.83;;
19207;SDS011;9737;59.466;18.036;2023-05-10T13:39:01;9.10;;;3.10;;
19207;SDS011;9737;59.466;18.036;2023-05-10T13:41:33;11.88;;;3.05;;
19207;SDS011;9737;59.466;18.036;2023-05-10T13:44:00;8.60;;;2.95;;
19207;SDS011;9737;59.466;18.036;2023-05-10T13:46:28;11.77;;;3.13;;
19207;SDS011;9737;59.466;18.036;2023-05-10T13:48:56;6.93;;;3.10;;
19207;SDS011;9737;59.466;18.036;2023-05-10T13:51:24;9.38;;;3.38;;
19207;SDS011;9737;59.466;18.036;2023-05-10T13:53:52;11.38;;;3.20;;
19207;SDS011;9737;59.466;18.036;2023-05-10T13:56:20;8.20;;;3.30;;
19207;SDS011;9737;59.466;18.036;2023-05-10T13:58:50;5.88;;;2.78;;
19207;SDS011;9737;59.466;18.036;2023-05-10T14:01:18;6.20;;;2.95;;
19207;SDS011;9737;59.466;18.036;2023-05-10T14:03:46;5.65;;;3.35;;
19207;SDS011;9737;59.466;18.036;2023-05-10T14:06:18;10.40;;;3.15;;
19207;SDS011;9737;59.466;18.036;2023-05-10T14:08:46;4.03;;;3.10;;
19207;SDS011;9737;59.466;18.036;2023-05-10T14:11:14;7.35;;;2.90;;
19207;SDS011;9737;59.466;18.036;2023-05-10T14:13:41;9.57;;;3.13;;
19207;SDS011;9737;59.466;18.036;2023-05-10T14:16:11;5.65;;;2.85;;
19207;SDS011;9737;59.466;18.036;2023-05-10T14:18:41;8.00;;;2.80;;
19207;SDS011;9737;59.466;18.036;2023-05-10T14:21:08;5.30;;;3.20;;
19207;SDS011;9737;59.466;18.036;2023-05-10T14:23:36;9.40;;;3.00;;
19207;SDS011;9737;59.466;18.036;2023-05-10T14:26:04;4.60;;;2.97;;
19207;SDS011;9737;59.466;18.036;2023-05-10T14:28:32;14.30;;;3.22;;
19207;SDS011;9737;59.466;18.036;2023-05-10T14:31:00;5.70;;;3.03;;
19207;SDS011;9737;59.466;18.036;2023-05-10T14:33:30;10.32;;;3.10;;
19207;SDS011;9737;59.466;18.036;2023-05-10T14:35:57;8.57;;;3.13;;
19207;SDS011;9737;59.466;18.036;2023-05-10T14:38:26;5.20;;;3.03;;
19207;SDS011;9737;59.466;18.036;2023-05-10T14:40:54;11.18;;;3.10;;
19207;SDS011;9737;59.466;18.036;2023-05-10T14:43:22;6.32;;;3.08;;
19207;SDS011;9737;59.466;18.036;2023-05-10T14:45:50;10.57;;;2.90;;
19207;SDS011;9737;59.466;18.036;2023-05-10T14:48:18;7.20;;;3.00;;
19207;SDS011;9737;59.466;18.036;2023-05-10T14:50:48;9.32;;;2.80;;
19207;SDS011;9737;59.466;18.036;2023-05-10T14:53:18;8.18;;;2.70;;
19207;SDS011;9737;59.466;18.036;2023-05-10T14:55:46;11.60;;;3.00;;
19207;SDS011;9737;59.466;18.036;2023-05-10T14:58:14;8.30;;;2.63;;
19207;SDS011;9737;59.466;18.036;2023-05-10T15:00:42;6.13;;;2.90;;